createdAt,value
2022-09-15T00:00:35.477Z,9.52
2022-09-15T00:03:02.934Z,7.50
2022-09-15T00:05:30.266Z,11.40
2022-09-15T00:07:57.447Z,6.85
2022-09-15T00:10:24.680Z,10.73
2022-09-15T00:12:51.969Z,6.65
2022-09-15T00:15:19.547Z,2.35
2022-09-15T00:17:52.081Z,4.63
2022-09-15T00:20:20.632Z,2.53
2022-09-15T00:22:48.452Z,0.88
2022-09-15T00:25:16.065Z,1.02
2022-09-15T00:27:43.204Z,2.90
2022-09-15T00:30:11.097Z,1.40
2022-09-15T00:32:38.489Z,0.70
2022-09-15T00:35:08.042Z,0.40
2022-09-15T00:37:35.207Z,1.02
2022-09-15T00:40:03.000Z,2.05
2022-09-15T00:42:30.377Z,0.60
2022-09-15T00:44:59.236Z,0.77
2022-09-15T00:47:36.405Z,0.63
2022-09-15T00:50:07.425Z,0.77
2022-09-15T00:52:44.306Z,0.60
2022-09-15T00:55:20.220Z,1.02
2022-09-15T00:57:52.730Z,0.95
2022-09-15T01:00:22.717Z,0.80
2022-09-15T01:02:50.676Z,0.82
2022-09-15T01:05:21.205Z,0.95
2022-09-15T01:07:59.287Z,0.82
2022-09-15T01:10:28.864Z,0.85
2022-09-15T01:13:00.301Z,0.55
2022-09-15T01:15:37.788Z,0.60
2022-09-15T01:18:15.782Z,0.80
2022-09-15T01:21:05.296Z,0.95
2022-09-15T01:24:22.931Z,0.60
2022-09-15T01:27:41.581Z,0.50
2022-09-15T01:30:13.275Z,1.02
2022-09-15T01:33:04.972Z,0.55
2022-09-15T01:35:56.386Z,0.70
2022-09-15T01:38:33.287Z,0.85
2022-09-15T01:41:07.413Z,1.10
2022-09-15T01:43:42.823Z,0.35
2022-09-15T01:46:14.466Z,0.75
2022-09-15T01:48:42.513Z,0.60
2022-09-15T01:51:10.256Z,0.43
2022-09-15T01:53:37.903Z,0.73
2022-09-15T01:56:08.659Z,0.98
2022-09-15T01:58:37.955Z,1.30
2022-09-15T02:01:10.200Z,0.70
2022-09-15T02:03:44.802Z,0.55
2022-09-15T02:06:19.638Z,1.52
2022-09-15T02:08:52.621Z,0.63
2022-09-15T02:11:28.154Z,1.38
2022-09-15T02:14:03.972Z,0.80
2022-09-15T02:16:35.447Z,1.00
2022-09-15T02:19:15.643Z,1.23
2022-09-15T02:21:54.243Z,2.67
2022-09-15T02:24:27.905Z,0.57
2022-09-15T02:26:57.833Z,0.82
2022-09-15T02:29:27.515Z,1.23
2022-09-15T02:32:03.690Z,0.90
2022-09-15T02:34:38.825Z,0.50
2022-09-15T02:37:06.799Z,1.00
2022-09-15T02:39:37.471Z,0.50
2022-09-15T02:42:05.028Z,1.10
2022-09-15T02:44:32.425Z,0.90
2022-09-15T02:47:02.079Z,2.13
2022-09-15T02:49:29.645Z,0.93
2022-09-15T02:51:58.170Z,0.80
2022-09-15T02:54:25.374Z,2.75
2022-09-15T02:56:52.544Z,1.55
2022-09-15T02:59:19.793Z,0.90
2022-09-15T03:01:47.033Z,0.30
2022-09-15T03:04:14.384Z,0.40
2022-09-15T03:06:41.572Z,1.10
2022-09-15T03:09:10.541Z,0.95
2022-09-15T03:11:37.758Z,0.40
2022-09-15T03:14:06.589Z,1.08
2022-09-15T03:16:35.555Z,1.05
2022-09-15T03:19:04.029Z,1.00
2022-09-15T03:21:31.677Z,1.85
2022-09-15T03:23:59.239Z,3.10
2022-09-15T03:26:27.850Z,1.00
2022-09-15T03:28:55.091Z,0.63
2022-09-15T03:31:22.609Z,1.08
2022-09-15T03:33:49.882Z,0.88
2022-09-15T03:36:17.102Z,1.02
2022-09-15T03:38:44.338Z,2.15
2022-09-15T03:41:12.769Z,2.08
2022-09-15T03:43:41.745Z,1.35
2022-09-15T03:46:11.723Z,1.67
2022-09-15T03:48:40.632Z,1.83
2022-09-15T03:51:10.650Z,1.20
2022-09-15T03:53:40.102Z,2.30
2022-09-15T03:56:09.046Z,2.03
2022-09-15T03:58:36.203Z,0.65
2022-09-15T04:01:05.413Z,0.30
2022-09-15T04:03:33.461Z,0.93
2022-09-15T04:06:00.675Z,0.40
2022-09-15T04:08:28.076Z,0.88
2022-09-15T04:10:55.383Z,0.38
2022-09-15T04:13:27.951Z,0.30
2022-09-15T04:16:01.165Z,0.63
2022-09-15T04:18:30.355Z,0.63
2022-09-15T04:20:59.765Z,0.43
2022-09-15T04:23:27.238Z,1.23
2022-09-15T04:25:56.089Z,0.82
2022-09-15T04:28:23.414Z,0.30
2022-09-15T04:30:50.578Z,0.70
2022-09-15T04:33:17.935Z,1.20
2022-09-15T04:35:46.690Z,0.90
2022-09-15T04:38:13.937Z,0.50
2022-09-15T04:40:41.086Z,1.02
2022-09-15T04:43:08.496Z,1.05
2022-09-15T04:45:35.902Z,0.50
2022-09-15T04:48:03.227Z,0.60
2022-09-15T04:50:32.351Z,1.48
2022-09-15T04:53:03.923Z,0.65
2022-09-15T04:55:32.356Z,0.93
2022-09-15T04:57:59.866Z,0.50
2022-09-15T05:00:27.428Z,1.35
2022-09-15T05:02:54.875Z,0.95
2022-09-15T05:05:22.211Z,0.60
2022-09-15T05:07:49.714Z,0.98
2022-09-15T05:10:18.636Z,0.50
2022-09-15T05:12:46.278Z,1.65
2022-09-15T05:15:13.599Z,1.13
2022-09-15T05:17:40.982Z,0.75
2022-09-15T05:20:08.773Z,0.70
2022-09-15T05:22:40.895Z,0.77
2022-09-15T05:25:09.572Z,0.90
2022-09-15T05:27:39.661Z,0.77
2022-09-15T05:30:35.779Z,1.05
2022-09-15T05:32:56.358Z,1.02
2022-09-15T05:35:23.824Z,0.60
2022-09-15T05:37:50.970Z,0.47
2022-09-15T05:40:20.844Z,0.70
2022-09-15T05:42:49.445Z,0.57
2022-09-15T05:45:16.828Z,0.80
2022-09-15T05:47:44.252Z,0.75
2022-09-15T05:50:11.576Z,0.55
2022-09-15T05:52:38.841Z,0.60
2022-09-15T05:55:06.471Z,0.47
2022-09-15T05:57:33.593Z,0.82
2022-09-15T06:00:02.997Z,1.02
2022-09-15T06:02:39.253Z,1.35
2022-09-15T06:05:08.098Z,0.75
2022-09-15T06:07:35.337Z,0.80
2022-09-15T06:10:02.773Z,0.68
2022-09-15T06:12:30.243Z,0.60
2022-09-15T06:14:57.673Z,0.43
2022-09-15T06:17:26.550Z,0.85
2022-09-15T06:19:53.801Z,0.70
2022-09-15T06:22:21.025Z,0.40
2022-09-15T06:24:48.455Z,1.02
2022-09-15T06:27:15.886Z,0.50
2022-09-15T06:29:43.107Z,1.10
2022-09-15T06:32:10.353Z,0.60
2022-09-15T06:34:39.076Z,0.57
2022-09-15T06:37:06.261Z,0.90
2022-09-15T06:39:33.499Z,0.65
2022-09-15T06:42:03.249Z,1.17
2022-09-15T06:44:32.128Z,0.98
2022-09-15T06:46:59.437Z,1.27
2022-09-15T06:49:26.961Z,1.85
2022-09-15T06:51:56.532Z,0.80
2022-09-15T06:54:24.060Z,0.50
2022-09-15T06:56:51.308Z,0.30
2022-09-15T06:59:18.823Z,0.98
2022-09-15T07:01:46.239Z,2.25
2022-09-15T07:04:13.509Z,0.70
2022-09-15T07:06:40.820Z,1.45
2022-09-15T07:09:10.994Z,1.00
2022-09-15T07:11:38.300Z,0.52
2022-09-15T07:14:05.522Z,1.77
2022-09-15T07:16:33.076Z,0.60
2022-09-15T07:19:02.517Z,0.90
2022-09-15T07:21:29.867Z,0.30
2022-09-15T07:23:58.196Z,1.20
2022-09-15T07:26:28.046Z,0.65
2022-09-15T07:28:59.307Z,0.55
2022-09-15T07:31:29.751Z,0.65
2022-09-15T07:33:57.334Z,0.50
2022-09-15T07:36:24.610Z,0.50
2022-09-15T07:38:52.043Z,1.67
2022-09-15T07:41:21.215Z,0.50
2022-09-15T07:43:51.417Z,0.70
2022-09-15T07:46:19.403Z,1.63
2022-09-15T07:48:47.629Z,1.05
2022-09-15T07:51:15.928Z,1.20
2022-09-15T07:53:43.691Z,0.30
2022-09-15T07:56:11.104Z,0.55
2022-09-15T07:58:38.645Z,0.73
2022-09-15T08:01:11.308Z,0.77
2022-09-15T08:03:40.345Z,1.02
2022-09-15T08:06:08.621Z,1.45
2022-09-15T08:08:37.508Z,1.85
2022-09-15T08:11:07.084Z,0.70
2022-09-15T08:13:34.637Z,2.35
2022-09-15T08:16:11.633Z,1.08
2022-09-15T08:18:42.158Z,0.93
2022-09-15T08:21:11.681Z,1.55
2022-09-15T08:23:38.905Z,1.05
2022-09-15T08:26:10.644Z,0.60
2022-09-15T08:28:40.762Z,0.70
2022-09-15T08:31:11.680Z,1.45
2022-09-15T08:33:44.568Z,0.63
2022-09-15T08:36:12.891Z,1.05
2022-09-15T08:38:41.712Z,1.70
2022-09-15T08:41:18.794Z,1.50
2022-09-15T08:43:51.646Z,0.88
2022-09-15T08:46:27.170Z,1.08
2022-09-15T08:49:03.100Z,1.27
2022-09-15T08:51:37.090Z,0.70
2022-09-15T08:54:11.372Z,0.30
2022-09-15T08:56:41.713Z,0.68
2022-09-15T08:59:13.177Z,1.00
2022-09-15T09:01:58.281Z,2.17
2022-09-15T09:04:41.569Z,1.13
2022-09-15T09:07:24.226Z,1.13
2022-09-15T09:09:57.398Z,1.33
2022-09-15T09:12:44.427Z,1.20
2022-09-15T09:15:24.538Z,1.80
2022-09-15T09:18:11.086Z,1.63
2022-09-15T09:20:49.011Z,1.48
2022-09-15T09:23:20.910Z,1.88
2022-09-15T09:25:49.953Z,0.40
2022-09-15T09:28:28.233Z,2.47
2022-09-15T09:31:00.320Z,2.22
2022-09-15T09:33:38.601Z,3.60
2022-09-15T09:36:08.593Z,1.27
2022-09-15T09:38:38.468Z,1.33
2022-09-15T09:41:09.300Z,1.65
2022-09-15T09:43:37.134Z,1.65
2022-09-15T09:46:11.600Z,1.10
2022-09-15T09:48:43.544Z,1.40
2022-09-15T09:51:31.261Z,1.92
2022-09-15T09:54:04.704Z,1.25
2022-09-15T09:56:32.021Z,1.20
2022-09-15T09:58:59.291Z,1.75
2022-09-15T10:01:26.885Z,1.63
2022-09-15T10:04:17.165Z,0.95
2022-09-15T10:06:44.436Z,1.58
2022-09-15T10:09:17.030Z,0.52
2022-09-15T10:11:46.815Z,1.70
2022-09-15T10:14:22.318Z,1.25
2022-09-15T10:17:08.401Z,1.10
2022-09-15T10:19:49.615Z,2.20
2022-09-15T10:22:30.112Z,1.45
2022-09-15T10:24:59.806Z,0.98
2022-09-15T10:27:30.535Z,1.23
2022-09-15T10:30:17.153Z,1.73
2022-09-15T10:32:44.416Z,1.83
2022-09-15T10:35:18.271Z,1.45
2022-09-15T10:37:59.401Z,3.65
2022-09-15T10:40:34.592Z,1.60
2022-09-15T10:43:17.062Z,2.25
2022-09-15T10:45:49.197Z,1.83
2022-09-15T10:48:28.101Z,2.47
2022-09-15T10:51:04.116Z,2.05
2022-09-15T10:53:57.583Z,1.70
2022-09-15T10:56:29.728Z,3.90
2022-09-15T10:59:11.804Z,1.55
2022-09-15T11:02:10.686Z,1.50
2022-09-15T11:04:52.370Z,4.75
2022-09-15T11:07:32.021Z,1.80
2022-09-15T11:10:06.657Z,3.35
2022-09-15T11:12:49.138Z,1.42
2022-09-15T11:15:33.628Z,3.55
2022-09-15T11:18:25.804Z,3.08
2022-09-15T11:21:11.169Z,1.58
2022-09-15T11:26:17.349Z,3.22
2022-09-15T11:28:49.763Z,2.83
2022-09-15T11:31:22.113Z,2.60
2022-09-15T11:33:55.389Z,4.03
2022-09-15T11:36:32.632Z,4.75
2022-09-15T11:39:24.041Z,6.13
2022-09-15T11:41:59.782Z,1.85
2022-09-15T11:44:32.406Z,3.92
2022-09-15T11:47:14.289Z,3.70
2022-09-15T11:49:46.501Z,4.53
2022-09-15T11:52:39.759Z,2.47
2022-09-15T11:55:21.939Z,4.40
2022-09-15T11:57:57.479Z,4.32
2022-09-15T12:00:24.700Z,2.40
2022-09-15T12:03:00.475Z,5.05
2022-09-15T12:05:32.123Z,3.42
2022-09-15T12:08:05.052Z,3.88
2022-09-15T12:10:39.871Z,3.22
2022-09-15T12:13:15.518Z,2.55
2022-09-15T12:15:43.706Z,2.33
2022-09-15T12:18:37.741Z,1.45
2022-09-15T12:21:14.193Z,0.50
2022-09-15T12:23:45.139Z,1.67
2022-09-15T12:26:17.553Z,1.17
2022-09-15T12:28:57.481Z,0.60
2022-09-15T12:31:29.964Z,5.05
2022-09-15T12:34:05.709Z,0.90
2022-09-15T12:36:53.029Z,1.58
2022-09-15T12:39:25.606Z,0.40
2022-09-15T12:41:56.546Z,1.70
2022-09-15T12:44:33.614Z,2.45
2022-09-15T12:47:04.212Z,1.42
2022-09-15T12:49:35.225Z,2.65
2022-09-15T12:52:07.902Z,1.15
2022-09-15T12:54:39.256Z,2.13
2022-09-15T12:57:19.210Z,1.85
2022-09-15T12:59:46.852Z,2.83
2022-09-15T13:02:44.953Z,1.48
2022-09-15T13:05:14.493Z,2.85
2022-09-15T13:07:56.925Z,0.30
2022-09-15T13:10:34.829Z,2.13
2022-09-15T13:13:22.939Z,2.58
2022-09-15T13:15:53.726Z,2.53
2022-09-15T13:18:22.036Z,0.73
2022-09-15T13:20:54.909Z,0.50
2022-09-15T13:23:25.774Z,1.17
2022-09-15T13:25:56.902Z,1.33
2022-09-15T13:28:27.132Z,1.23
2022-09-15T13:31:07.690Z,1.17
2022-09-15T13:40:13.167Z,1.52
2022-09-15T13:42:55.072Z,1.35
2022-09-15T13:45:46.096Z,1.88
2022-09-15T13:48:33.880Z,2.95
2022-09-15T13:51:06.174Z,1.13
2022-09-15T13:53:48.401Z,1.88
2022-09-15T13:56:22.621Z,1.77
2022-09-15T13:58:56.554Z,0.60
2022-09-15T14:01:30.307Z,0.98
2022-09-15T14:04:02.241Z,1.67
2022-09-15T14:06:35.704Z,2.08
2022-09-15T14:09:08.793Z,0.68
2022-09-15T14:11:37.990Z,1.33
2022-09-15T14:14:10.499Z,1.50
2022-09-15T14:16:39.888Z,1.10
2022-09-15T14:19:30.635Z,1.42
2022-09-15T14:21:58.829Z,0.45
2022-09-15T14:24:29.689Z,2.40
2022-09-15T14:27:00.271Z,1.15
2022-09-15T14:29:27.881Z,3.13
2022-09-15T14:32:01.913Z,1.55
2022-09-15T14:34:32.353Z,1.67
2022-09-15T14:37:03.448Z,1.20
2022-09-15T14:39:30.866Z,3.47
2022-09-15T14:47:28.053Z,1.48
2022-09-15T14:50:06.805Z,1.92
2022-09-15T14:55:08.191Z,3.25
2022-09-15T14:57:39.620Z,1.90
2022-09-15T15:00:12.343Z,1.55
2022-09-15T15:02:56.693Z,1.65
2022-09-15T15:05:27.546Z,1.98
2022-09-15T15:07:55.885Z,1.80
2022-09-15T15:10:25.962Z,1.55
2022-09-15T15:12:59.257Z,2.67
2022-09-15T15:15:27.400Z,2.80
2022-09-15T15:17:56.215Z,4.05
2022-09-15T15:20:25.714Z,1.70
2022-09-15T15:23:16.827Z,1.50
2022-09-15T15:25:44.670Z,1.48
2022-09-15T15:28:30.779Z,1.60
2022-09-15T15:31:13.673Z,2.72
2022-09-15T15:33:48.768Z,0.75
2022-09-15T15:36:21.983Z,0.93
2022-09-15T15:38:52.455Z,1.10
2022-09-15T15:41:22.298Z,1.25
2022-09-15T15:44:03.237Z,2.53
2022-09-15T15:46:48.138Z,3.03
2022-09-15T15:49:17.422Z,1.60
2022-09-15T15:51:44.939Z,2.60
2022-09-15T15:54:12.215Z,5.55
2022-09-15T15:56:40.076Z,2.03
2022-09-15T15:59:07.260Z,1.15
2022-09-15T16:01:34.428Z,4.45
2022-09-15T16:04:01.789Z,1.40
2022-09-15T16:06:31.200Z,1.95
2022-09-15T16:08:58.812Z,2.80
2022-09-15T16:11:26.495Z,2.72
2022-09-15T16:13:53.998Z,4.55
2022-09-15T16:16:23.686Z,3.38
2022-09-15T16:18:51.123Z,7.15
2022-09-15T16:21:20.638Z,2.38
2022-09-15T16:23:49.212Z,2.40
2022-09-15T16:26:20.737Z,4.60
2022-09-15T16:28:47.945Z,6.75
2022-09-15T16:31:15.966Z,2.10
2022-09-15T16:33:44.951Z,4.78
2022-09-15T16:36:14.673Z,5.18
2022-09-15T16:38:42.837Z,3.25
2022-09-15T16:41:19.285Z,3.25
2022-09-15T16:43:47.211Z,4.28
2022-09-15T16:46:26.414Z,3.03
2022-09-15T16:48:54.399Z,3.47
2022-09-15T16:51:29.865Z,5.47
2022-09-15T16:53:58.709Z,6.63
2022-09-15T16:56:28.517Z,5.05
2022-09-15T16:59:00.245Z,3.75
2022-09-15T17:01:28.583Z,2.75
2022-09-15T17:03:55.961Z,5.28
2022-09-15T17:06:23.191Z,3.78
2022-09-15T17:08:50.385Z,3.75
2022-09-15T17:11:20.026Z,6.40
2022-09-15T17:13:48.668Z,5.72
2022-09-15T17:16:19.379Z,4.13
2022-09-15T17:18:47.025Z,8.48
2022-09-15T17:21:16.501Z,5.97
2022-09-15T17:23:46.104Z,7.13
2022-09-15T17:26:15.065Z,9.10
2022-09-15T17:28:42.589Z,8.73
2022-09-15T17:31:15.138Z,5.15
2022-09-15T17:33:46.219Z,7.00
2022-09-15T17:39:33.745Z,5.97
2022-09-15T17:44:30.599Z,6.85
2022-09-15T17:47:03.955Z,8.07
2022-09-15T17:49:31.124Z,8.75
2022-09-15T17:51:58.375Z,5.00
2022-09-15T17:54:25.858Z,4.30
2022-09-15T17:56:53.432Z,4.03
2022-09-15T17:59:20.576Z,7.13
2022-09-15T18:01:48.804Z,6.60
2022-09-15T18:04:17.551Z,9.20
2022-09-15T18:06:45.634Z,9.27
2022-09-15T18:09:14.867Z,10.70
2022-09-15T18:11:42.085Z,12.13
2022-09-15T18:14:09.605Z,13.48
2022-09-15T18:16:37.184Z,9.15
2022-09-15T18:19:04.347Z,8.07
2022-09-15T18:21:32.952Z,10.57
2022-09-15T18:24:00.097Z,7.32
2022-09-15T18:26:27.362Z,14.48
2022-09-15T18:28:54.841Z,10.52
2022-09-15T18:31:22.399Z,11.52
2022-09-15T18:33:49.537Z,13.63
2022-09-15T18:36:16.856Z,10.65
2022-09-15T18:38:45.541Z,5.85
2022-09-15T18:41:13.143Z,6.95
2022-09-15T18:43:40.421Z,13.30
2022-09-15T18:46:08.066Z,5.38
2022-09-15T18:48:35.362Z,6.70
2022-09-15T18:51:07.515Z,9.85
2022-09-15T18:56:09.718Z,9.25
2022-09-15T18:58:37.529Z,8.95
2022-09-15T19:01:06.076Z,13.93
2022-09-15T19:03:33.945Z,11.82
2022-09-15T19:06:03.259Z,11.90
2022-09-15T19:08:34.160Z,7.30
2022-09-15T19:11:05.558Z,9.82
2022-09-15T19:13:35.809Z,6.15
2022-09-15T19:16:04.747Z,7.85
2022-09-15T19:18:32.365Z,7.68
2022-09-15T19:21:04.731Z,6.38
2022-09-15T19:23:32.015Z,6.47
2022-09-15T19:26:03.741Z,6.10
2022-09-15T19:28:31.287Z,6.63
2022-09-15T19:30:59.488Z,6.47
2022-09-15T19:33:27.289Z,5.57
2022-09-15T19:36:10.906Z,6.07
2022-09-15T19:38:42.235Z,7.15
2022-09-15T19:41:13.327Z,6.28
2022-09-15T19:43:43.991Z,4.40
2022-09-15T19:46:16.350Z,5.53
2022-09-15T19:48:47.879Z,5.28
2022-09-15T19:51:17.923Z,6.22
2022-09-15T19:53:45.833Z,6.72
2022-09-15T19:56:16.075Z,9.25
2022-09-15T19:58:43.614Z,6.88
2022-09-15T20:01:11.153Z,8.73
2022-09-15T20:06:27.711Z,8.35
2022-09-15T20:09:00.724Z,9.38
2022-09-15T20:11:30.455Z,10.43
2022-09-15T20:13:57.970Z,10.90
2022-09-15T20:16:25.932Z,8.10
2022-09-15T20:18:54.694Z,13.18
2022-09-15T20:21:45.752Z,8.18
2022-09-15T20:24:12.275Z,8.65
2022-09-15T20:26:41.264Z,7.13
2022-09-15T20:29:08.624Z,9.90
2022-09-15T20:31:36.057Z,6.22
2022-09-15T20:34:03.415Z,3.72
2022-09-15T20:36:36.599Z,3.45
2022-09-15T20:39:08.868Z,6.13
2022-09-15T20:44:06.230Z,6.47
2022-09-15T20:46:33.678Z,5.82
2022-09-15T20:49:01.568Z,7.57
2022-09-15T20:51:31.770Z,7.45
2022-09-15T20:54:00.588Z,8.57
2022-09-15T20:56:29.981Z,8.75
2022-09-15T20:58:58.778Z,8.57
2022-09-15T21:01:29.069Z,9.35
2022-09-15T21:03:56.660Z,8.77
2022-09-15T21:06:26.459Z,7.88
2022-09-15T21:08:55.691Z,7.68
2022-09-15T21:11:24.158Z,10.35
2022-09-15T21:13:51.480Z,10.95
2022-09-15T21:16:21.551Z,8.63
2022-09-15T21:18:51.138Z,9.05
2022-09-15T21:21:21.076Z,6.80
2022-09-15T21:23:49.624Z,10.18
2022-09-15T21:26:18.209Z,6.45
2022-09-15T21:28:45.887Z,9.43
2022-09-15T21:31:15.206Z,10.70
2022-09-15T21:33:42.896Z,9.43
2022-09-15T21:36:14.719Z,8.32
2022-09-15T21:38:43.973Z,7.50
2022-09-15T21:41:13.871Z,10.05
2022-09-15T21:43:43.250Z,10.10
2022-09-15T21:46:13.210Z,8.23
2022-09-15T21:48:41.371Z,7.35
2022-09-15T21:51:12.041Z,8.10
2022-09-15T21:53:39.600Z,10.00
2022-09-15T21:56:12.166Z,8.13
2022-09-15T21:58:43.072Z,11.93
2022-09-15T22:01:12.878Z,5.18
2022-09-15T22:03:43.936Z,10.95
2022-09-15T22:06:13.478Z,8.20
2022-09-15T22:08:41.255Z,9.20
2022-09-15T22:11:09.688Z,6.13
2022-09-15T22:13:39.247Z,6.43
2022-09-15T22:16:08.738Z,5.60
2022-09-15T22:18:37.019Z,8.98
2022-09-15T22:21:06.964Z,6.35
2022-09-15T22:23:36.457Z,6.38
2022-09-15T22:26:05.252Z,7.68
2022-09-15T22:28:32.672Z,7.82
2022-09-15T22:31:01.176Z,7.32
2022-09-15T22:33:28.895Z,8.80
2022-09-15T22:35:57.148Z,8.55
2022-09-15T22:38:25.089Z,7.40
2022-09-15T22:40:54.068Z,8.20
2022-09-15T22:43:21.464Z,8.43
2022-09-15T22:45:48.734Z,7.93
2022-09-15T22:48:16.020Z,9.98
2022-09-15T22:50:45.347Z,5.97
2022-09-15T22:53:13.196Z,8.68
2022-09-15T22:55:40.674Z,10.30
2022-09-15T22:58:09.523Z,9.70
2022-09-15T23:00:38.119Z,5.93
2022-09-15T23:03:05.651Z,6.10
2022-09-15T23:05:32.862Z,6.82
2022-09-15T23:08:00.345Z,9.38
2022-09-15T23:10:28.307Z,5.03
2022-09-15T23:12:56.057Z,5.55
2022-09-15T23:15:24.646Z,8.20
2022-09-15T23:17:51.985Z,9.60
2022-09-15T23:20:19.299Z,6.43
2022-09-15T23:22:46.563Z,6.05
2022-09-15T23:25:13.822Z,6.63
2022-09-15T23:27:41.171Z,9.27
2022-09-15T23:30:09.742Z,7.28
2022-09-15T23:32:38.453Z,8.95
2022-09-15T23:35:06.616Z,8.65
2022-09-15T23:37:33.906Z,11.02
2022-09-15T23:40:01.482Z,11.18
2022-09-15T23:42:30.095Z,10.23
2022-09-15T23:44:57.301Z,5.95
2022-09-15T23:47:24.756Z,9.00
2022-09-15T23:49:53.443Z,6.78
2022-09-15T23:52:20.866Z,8.00
2022-09-15T23:54:48.108Z,11.60
2022-09-15T23:57:15.303Z,5.63
2022-09-15T23:59:42.424Z,7.82
